sensor_id;sensor_type;location;lat;lon;timestamp;pressure;altitude;pressure_sealevel;temperature;humidity
9335;BME280;4706;41.844;26.082;2023-03-14T00:00:05;101337.72;;;7.66;44.58
9335;BME280;4706;41.844;26.082;2023-03-14T00:02:31;101329.97;;;7.58;43.95
9335;BME280;4706;41.844;26.082;2023-03-14T00:04:56;101330.50;;;7.54;44.33
9335;BME280;4706;41.844;26.082;2023-03-14T00:07:22;101326.84;;;7.44;43.62
9335;BME280;4706;41.844;26.082;2023-03-14T00:09:50;101335.63;;;7.46;43.71
9335;BME280;4706;41.844;26.082;2023-03-14T00:12:16;101329.97;;;7.25;44.31
9335;BME280;4706;41.844;26.082;2023-03-14T00:14:41;101327.50;;;7.24;44.26
9335;BME280;4706;41.844;26.082;2023-03-14T00:17:08;101322.34;;;7.27;43.71
9335;BME280;4706;41.844;26.082;2023-03-14T00:19:33;101307.53;;;7.23;44.10
9335;BME280;4706;41.844;26.082;2023-03-14T00:21:59;101307.44;;;7.13;43.85
9335;BME280;4706;41.844;26.082;2023-03-14T00:24:25;101301.03;;;7.02;43.75
9335;BME280;4706;41.844;26.082;2023-03-14T00:26:50;101301.94;;;7.08;43.48
9335;BME280;4706;41.844;26.082;2023-03-14T00:29:16;101288.69;;;7.27;43.27
9335;BME280;4706;41.844;26.082;2023-03-14T00:31:41;101290.63;;;7.64;42.45
9335;BME280;4706;41.844;26.082;2023-03-14T00:34:07;101288.41;;;7.66;42.07
9335;BME280;4706;41.844;26.082;2023-03-14T00:36:32;101283.63;;;7.83;41.70
9335;BME280;4706;41.844;26.082;2023-03-14T00:38:58;101268.91;;;7.99;40.96
9335;BME280;4706;41.844;26.082;2023-03-14T00:41:24;101268.09;;;8.04;40.68
9335;BME280;4706;41.844;26.082;2023-03-14T00:43:50;101251.34;;;7.95;42.14
9335;BME280;4706;41.844;26.082;2023-03-14T00:46:16;101267.56;;;8.12;42.63
9335;BME280;4706;41.844;26.082;2023-03-14T00:48:42;101268.50;;;8.33;44.30
9335;BME280;4706;41.844;26.082;2023-03-14T00:51:09;101261.41;;;8.42;45.10
9335;BME280;4706;41.844;26.082;2023-03-14T00:53:35;101258.34;;;8.28;44.51
9335;BME280;4706;41.844;26.082;2023-03-14T00:56:07;101261.38;;;8.32;44.04
9335;BME280;4706;41.844;26.082;2023-03-14T00:58:33;101264.41;;;8.36;43.35
9335;BME280;4706;41.844;26.082;2023-03-14T01:00:58;101262.19;;;8.33;42.34
9335;BME280;4706;41.844;26.082;2023-03-14T01:03:24;101253.69;;;8.34;42.01
9335;BME280;4706;41.844;26.082;2023-03-14T01:05:49;101252.56;;;8.25;41.63
9335;BME280;4706;41.844;26.082;2023-03-14T01:08:15;101258.06;;;8.20;41.68
9335;BME280;4706;41.844;26.082;2023-03-14T01:10:41;101245.41;;;8.19;41.85
9335;BME280;4706;41.844;26.082;2023-03-14T01:13:08;101244.59;;;8.18;42.05
9335;BME280;4706;41.844;26.082;2023-03-14T01:15:35;101254.44;;;8.14;42.13
9335;BME280;4706;41.844;26.082;2023-03-14T01:18:01;101249.22;;;8.08;42.61
9335;BME280;4706;41.844;26.082;2023-03-14T01:20:26;101232.47;;;7.99;43.18
9335;BME280;4706;41.844;26.082;2023-03-14T01:22:52;101247.81;;;8.00;43.33
9335;BME280;4706;41.844;26.082;2023-03-14T01:25:17;101240.41;;;8.00;43.37
9335;BME280;4706;41.844;26.082;2023-03-14T01:27:43;101237.44;;;8.07;43.14
9335;BME280;4706;41.844;26.082;2023-03-14T01:30:10;101240.00;;;7.71;43.30
9335;BME280;4706;41.844;26.082;2023-03-14T01:32:37;101246.63;;;7.38;44.25
9335;BME280;4706;41.844;26.082;2023-03-14T01:35:03;101239.22;;;7.34;44.79
9335;BME280;4706;41.844;26.082;2023-03-14T01:37:29;101240.53;;;7.26;45.24
9335;BME280;4706;41.844;26.082;2023-03-14T01:39:54;101244.44;;;7.40;45.81
9335;BME280;4706;41.844;26.082;2023-03-14T01:42:20;101252.16;;;7.48;45.87
9335;BME280;4706;41.844;26.082;2023-03-14T01:47:14;101234.97;;;7.58;45.52
9335;BME280;4706;41.844;26.082;2023-03-14T01:49:40;101235.56;;;7.65;45.33
9335;BME280;4706;41.844;26.082;2023-03-14T01:52:29;101235.72;;;7.48;45.23
9335;BME280;4706;41.844;26.082;2023-03-14T01:55:04;101226.41;;;7.44;45.41
9335;BME280;4706;41.844;26.082;2023-03-14T01:57:39;101235.63;;;7.33;45.48
9335;BME280;4706;41.844;26.082;2023-03-14T02:00:09;101229.84;;;7.29;45.86
9335;BME280;4706;41.844;26.082;2023-03-14T02:02:38;101223.56;;;7.29;46.15
9335;BME280;4706;41.844;26.082;2023-03-14T02:05:05;101227.50;;;7.43;45.54
9335;BME280;4706;41.844;26.082;2023-03-14T02:07:45;101227.78;;;7.42;45.73
9335;BME280;4706;41.844;26.082;2023-03-14T02:10:12;101220.63;;;7.41;45.24
9335;BME280;4706;41.844;26.082;2023-03-14T02:12:39;101207.44;;;7.33;45.06
9335;BME280;4706;41.844;26.082;2023-03-14T02:15:06;101220.09;;;7.01;46.01
9335;BME280;4706;41.844;26.082;2023-03-14T02:17:32;101235.22;;;6.82;47.00
9335;BME280;4706;41.844;26.082;2023-03-14T02:22:35;101229.00;;;6.60;46.09
9335;BME280;4706;41.844;26.082;2023-03-14T02:25:12;101225.25;;;6.66;46.69
9335;BME280;4706;41.844;26.082;2023-03-14T02:27:39;101230.81;;;6.49;46.91
9335;BME280;4706;41.844;26.082;2023-03-14T02:30:08;101226.31;;;6.38;47.11
9335;BME280;4706;41.844;26.082;2023-03-14T02:32:37;101228.84;;;6.44;46.58
9335;BME280;4706;41.844;26.082;2023-03-14T02:35:08;101229.88;;;6.65;47.06
9335;BME280;4706;41.844;26.082;2023-03-14T02:38:02;101228.19;;;6.59;46.26
9335;BME280;4706;41.844;26.082;2023-03-14T02:40:29;101226.16;;;6.49;46.27
9335;BME280;4706;41.844;26.082;2023-03-14T02:42:55;101227.97;;;6.66;46.60
9335;BME280;4706;41.844;26.082;2023-03-14T02:47:50;101222.69;;;6.86;46.17
9335;BME280;4706;41.844;26.082;2023-03-14T02:50:20;101221.91;;;6.91;45.60
9335;BME280;4706;41.844;26.082;2023-03-14T02:52:47;101227.66;;;6.89;45.52
9335;BME280;4706;41.844;26.082;2023-03-14T02:55:13;101232.03;;;6.90;45.60
9335;BME280;4706;41.844;26.082;2023-03-14T02:57:38;101227.34;;;6.86;45.95
9335;BME280;4706;41.844;26.082;2023-03-14T03:00:04;101218.25;;;6.80;45.41
9335;BME280;4706;41.844;26.082;2023-03-14T03:02:31;101217.53;;;6.90;45.83
9335;BME280;4706;41.844;26.082;2023-03-14T03:04:56;101216.44;;;6.91;45.65
9335;BME280;4706;41.844;26.082;2023-03-14T03:07:22;101215.66;;;6.95;45.32
9335;BME280;4706;41.844;26.082;2023-03-14T03:09:47;101209.72;;;7.03;45.17
9335;BME280;4706;41.844;26.082;2023-03-14T03:12:13;101200.94;;;7.01;45.63
9335;BME280;4706;41.844;26.082;2023-03-14T03:14:38;101211.16;;;7.11;45.61
9335;BME280;4706;41.844;26.082;2023-03-14T03:17:04;101208.13;;;7.13;46.41
9335;BME280;4706;41.844;26.082;2023-03-14T03:19:31;101197.78;;;7.20;46.42
9335;BME280;4706;41.844;26.082;2023-03-14T03:21:57;101193.63;;;7.12;45.86
9335;BME280;4706;41.844;26.082;2023-03-14T03:24:23;101195.56;;;7.12;46.53
9335;BME280;4706;41.844;26.082;2023-03-14T03:26:49;101197.50;;;7.16;46.24
9335;BME280;4706;41.844;26.082;2023-03-14T03:29:14;101203.81;;;7.22;46.11
9335;BME280;4706;41.844;26.082;2023-03-14T03:31:40;101204.09;;;7.25;46.13
9335;BME280;4706;41.844;26.082;2023-03-14T03:34:05;101205.97;;;7.15;45.99
9335;BME280;4706;41.844;26.082;2023-03-14T03:36:31;101202.66;;;7.13;45.65
9335;BME280;4706;41.844;26.082;2023-03-14T03:38:57;101200.19;;;7.11;45.60
9335;BME280;4706;41.844;26.082;2023-03-14T03:41:22;101201.53;;;7.09;45.78
9335;BME280;4706;41.844;26.082;2023-03-14T03:43:48;101201.84;;;7.12;45.61
9335;BME280;4706;41.844;26.082;2023-03-14T03:46:13;101204.97;;;6.94;44.69
9335;BME280;4706;41.844;26.082;2023-03-14T03:48:39;101205.66;;;6.79;45.77
9335;BME280;4706;41.844;26.082;2023-03-14T03:51:06;101201.63;;;6.54;45.70
9335;BME280;4706;41.844;26.082;2023-03-14T03:53:31;101213.50;;;6.16;46.25
9335;BME280;4706;41.844;26.082;2023-03-14T03:55:57;101214.22;;;6.06;46.38
9335;BME280;4706;41.844;26.082;2023-03-14T03:58:22;101210.91;;;6.04;47.17
9335;BME280;4706;41.844;26.082;2023-03-14T04:00:48;101208.94;;;6.22;47.18
9335;BME280;4706;41.844;26.082;2023-03-14T04:03:13;101190.78;;;6.38;47.68
9335;BME280;4706;41.844;26.082;2023-03-14T04:05:39;101207.53;;;6.46;47.25
9335;BME280;4706;41.844;26.082;2023-03-14T04:08:04;101206.72;;;6.46;46.97
9335;BME280;4706;41.844;26.082;2023-03-14T04:10:34;101214.56;;;6.37;47.30
9335;BME280;4706;41.844;26.082;2023-03-14T04:12:59;101210.41;;;6.35;47.30
9335;BME280;4706;41.844;26.082;2023-03-14T04:15:25;101211.66;;;6.22;46.86
9335;BME280;4706;41.844;26.082;2023-03-14T04:17:50;101213.25;;;5.96;46.56
9335;BME280;4706;41.844;26.082;2023-03-14T04:20:16;101205.06;;;5.96;46.99
9335;BME280;4706;41.844;26.082;2023-03-14T04:22:41;101215.59;;;6.09;47.28
9335;BME280;4706;41.844;26.082;2023-03-14T04:25:07;101212.19;;;5.97;47.63
9335;BME280;4706;41.844;26.082;2023-03-14T04:27:33;101202.66;;;5.99;47.07
9335;BME280;4706;41.844;26.082;2023-03-14T04:29:58;101205.13;;;6.01;47.74
9335;BME280;4706;41.844;26.082;2023-03-14T04:32:24;101219.69;;;5.90;47.76
9335;BME280;4706;41.844;26.082;2023-03-14T04:34:49;101212.00;;;5.87;48.56
9335;BME280;4706;41.844;26.082;2023-03-14T04:37:15;101220.75;;;5.67;47.99
9335;BME280;4706;41.844;26.082;2023-03-14T04:39:41;101214.13;;;5.41;49.07
9335;BME280;4706;41.844;26.082;2023-03-14T04:42:06;101229.22;;;5.48;48.83
9335;BME280;4706;41.844;26.082;2023-03-14T04:44:32;101234.13;;;5.46;48.60
9335;BME280;4706;41.844;26.082;2023-03-14T04:46:57;101229.31;;;5.75;49.92
9335;BME280;4706;41.844;26.082;2023-03-14T04:49:23;101227.00;;;5.84;49.19
9335;BME280;4706;41.844;26.082;2023-03-14T04:51:48;101228.97;;;5.89;49.86
9335;BME280;4706;41.844;26.082;2023-03-14T04:54:16;101234.44;;;5.89;49.73
9335;BME280;4706;41.844;26.082;2023-03-14T04:56:42;101228.06;;;6.00;49.69
9335;BME280;4706;41.844;26.082;2023-03-14T04:59:07;101240.38;;;6.02;49.59
9335;BME280;4706;41.844;26.082;2023-03-14T05:01:33;101235.47;;;6.04;49.54
9335;BME280;4706;41.844;26.082;2023-03-14T05:03:59;101231.41;;;6.07;49.45
9335;BME280;4706;41.844;26.082;2023-03-14T05:06:25;101232.38;;;6.18;49.83
9335;BME280;4706;41.844;26.082;2023-03-14T05:08:50;101234.66;;;6.26;50.49
9335;BME280;4706;41.844;26.082;2023-03-14T05:11:16;101231.41;;;6.29;50.09
9335;BME280;4706;41.844;26.082;2023-03-14T05:13:41;101229.03;;;6.38;50.25
9335;BME280;4706;41.844;26.082;2023-03-14T05:16:09;101239.47;;;6.41;49.73
9335;BME280;4706;41.844;26.082;2023-03-14T05:18:35;101226.97;;;6.50;50.19
9335;BME280;4706;41.844;26.082;2023-03-14T05:21:01;101221.81;;;6.53;49.68
9335;BME280;4706;41.844;26.082;2023-03-14T05:23:27;101227.44;;;6.69;49.81
9335;BME280;4706;41.844;26.082;2023-03-14T05:25:53;101228.63;;;6.78;49.11
9335;BME280;4706;41.844;26.082;2023-03-14T05:28:18;101224.00;;;6.78;48.87
9335;BME280;4706;41.844;26.082;2023-03-14T05:30:44;101227.19;;;7.02;47.72
9335;BME280;4706;41.844;26.082;2023-03-14T05:33:09;101222.34;;;7.10;48.33
9335;BME280;4706;41.844;26.082;2023-03-14T05:35:35;101216.38;;;7.18;47.90
9335;BME280;4706;41.844;26.082;2023-03-14T05:38:00;101224.13;;;7.26;47.86
9335;BME280;4706;41.844;26.082;2023-03-14T05:40:26;101222.03;;;7.43;47.64
9335;BME280;4706;41.844;26.082;2023-03-14T05:42:51;101217.72;;;7.52;47.33
9335;BME280;4706;41.844;26.082;2023-03-14T05:45:18;101217.38;;;7.44;46.72
9335;BME280;4706;41.844;26.082;2023-03-14T05:47:43;101217.72;;;7.52;45.83
9335;BME280;4706;41.844;26.082;2023-03-14T05:50:09;101217.22;;;7.66;45.90
9335;BME280;4706;41.844;26.082;2023-03-14T05:52:35;101216.72;;;7.74;45.90
9335;BME280;4706;41.844;26.082;2023-03-14T05:55:01;101196.78;;;7.84;46.19
9335;BME280;4706;41.844;26.082;2023-03-14T05:57:27;101208.09;;;8.02;45.78
9335;BME280;4706;41.844;26.082;2023-03-14T05:59:52;101202.66;;;8.13;45.26
9335;BME280;4706;41.844;26.082;2023-03-14T06:02:18;101201.31;;;8.25;45.65
9335;BME280;4706;41.844;26.082;2023-03-14T06:04:43;101202.44;;;8.35;45.23
9335;BME280;4706;41.844;26.082;2023-03-14T06:07:09;101197.28;;;8.43;45.30
9335;BME280;4706;41.844;26.082;2023-03-14T06:09:34;101197.31;;;8.59;44.94
9335;BME280;4706;41.844;26.082;2023-03-14T06:12:00;101198.16;;;8.69;44.41
9335;BME280;4706;41.844;26.082;2023-03-14T06:14:25;101195.69;;;8.73;44.10
9335;BME280;4706;41.844;26.082;2023-03-14T06:16:50;101195.97;;;8.87;44.49
9335;BME280;4706;41.844;26.082;2023-03-14T06:19:16;101198.44;;;8.98;43.90
9335;BME280;4706;41.844;26.082;2023-03-14T06:21:42;101185.81;;;8.97;43.67
9335;BME280;4706;41.844;26.082;2023-03-14T06:24:07;101185.53;;;9.04;44.14
9335;BME280;4706;41.844;26.082;2023-03-14T06:26:33;101184.69;;;9.24;43.97
9335;BME280;4706;41.844;26.082;2023-03-14T06:28:58;101193.69;;;9.60;43.65
9335;BME280;4706;41.844;26.082;2023-03-14T06:31:32;101183.19;;;9.72;43.09
9335;BME280;4706;41.844;26.082;2023-03-14T06:33:58;101187.53;;;9.94;42.00
9335;BME280;4706;41.844;26.082;2023-03-14T06:36:24;101189.97;;;9.95;42.53
9335;BME280;4706;41.844;26.082;2023-03-14T06:38:49;101199.00;;;10.06;43.05
9335;BME280;4706;41.844;26.082;2023-03-14T06:41:15;101181.38;;;10.12;42.37
9335;BME280;4706;41.844;26.082;2023-03-14T06:43:41;101198.09;;;10.26;42.00
9335;BME280;4706;41.844;26.082;2023-03-14T06:46:07;101202.94;;;10.50;42.04
9335;BME280;4706;41.844;26.082;2023-03-14T06:48:32;101193.16;;;10.73;41.65
9335;BME280;4706;41.844;26.082;2023-03-14T06:50:58;101195.47;;;10.89;40.87
9335;BME280;4706;41.844;26.082;2023-03-14T06:53:23;101203.97;;;10.93;40.29
9335;BME280;4706;41.844;26.082;2023-03-14T06:55:49;101202.22;;;11.07;40.24
9335;BME280;4706;41.844;26.082;2023-03-14T06:58:15;101189.44;;;11.22;39.67
9335;BME280;4706;41.844;26.082;2023-03-14T07:00:41;101181.94;;;11.27;39.67
9335;BME280;4706;41.844;26.082;2023-03-14T07:03:07;101180.94;;;11.42;39.00
9335;BME280;4706;41.844;26.082;2023-03-14T07:05:32;101188.38;;;11.71;39.04
9335;BME280;4706;41.844;26.082;2023-03-14T07:07:58;101178.28;;;11.61;39.32
9335;BME280;4706;41.844;26.082;2023-03-14T07:10:23;101187.13;;;11.82;39.19
9335;BME280;4706;41.844;26.082;2023-03-14T07:12:49;101180.09;;;11.95;38.37
9335;BME280;4706;41.844;26.082;2023-03-14T07:15:16;101177.00;;;12.20;37.86
9335;BME280;4706;41.844;26.082;2023-03-14T07:17:41;101172.53;;;12.43;37.85
9335;BME280;4706;41.844;26.082;2023-03-14T07:20:07;101172.44;;;12.67;37.68
9335;BME280;4706;41.844;26.082;2023-03-14T07:22:35;101175.00;;;12.96;36.58
9335;BME280;4706;41.844;26.082;2023-03-14T07:25:01;101165.75;;;13.20;36.10
9335;BME280;4706;41.844;26.082;2023-03-14T07:27:26;101168.09;;;13.45;35.81
9335;BME280;4706;41.844;26.082;2023-03-14T07:29:52;101161.34;;;13.65;35.22
9335;BME280;4706;41.844;26.082;2023-03-14T07:32:17;101174.03;;;13.94;35.22
9335;BME280;4706;41.844;26.082;2023-03-14T07:34:43;101164.28;;;14.10;33.82
9335;BME280;4706;41.844;26.082;2023-03-14T07:37:09;101157.16;;;14.31;34.40
9335;BME280;4706;41.844;26.082;2023-03-14T07:39:35;101162.03;;;14.48;34.15
9335;BME280;4706;41.844;26.082;2023-03-14T07:42:00;101143.44;;;14.63;34.21
9335;BME280;4706;41.844;26.082;2023-03-14T07:44:26;101151.25;;;14.83;34.45
9335;BME280;4706;41.844;26.082;2023-03-14T07:46:52;101135.41;;;14.97;33.28
9335;BME280;4706;41.844;26.082;2023-03-14T07:49:17;101132.88;;;14.87;33.84
9335;BME280;4706;41.844;26.082;2023-03-14T07:51:43;101133.28;;;15.03;34.45
9335;BME280;4706;41.844;26.082;2023-03-14T07:54:09;101133.69;;;15.19;34.61
9335;BME280;4706;41.844;26.082;2023-03-14T07:56:35;101130.13;;;15.18;34.45
9335;BME280;4706;41.844;26.082;2023-03-14T07:59:00;101117.31;;;15.31;34.52
9335;BME280;4706;41.844;26.082;2023-03-14T08:01:26;101120.13;;;15.48;34.28
9335;BME280;4706;41.844;26.082;2023-03-14T08:03:52;101115.22;;;15.45;34.40
9335;BME280;4706;41.844;26.082;2023-03-14T08:06:17;101107.78;;;15.63;34.00
9335;BME280;4706;41.844;26.082;2023-03-14T08:08:43;101115.75;;;15.87;33.61
9335;BME280;4706;41.844;26.082;2023-03-14T08:11:08;101107.38;;;15.70;33.43
9335;BME280;4706;41.844;26.082;2023-03-14T08:13:35;101117.31;;;15.71;33.75
9335;BME280;4706;41.844;26.082;2023-03-14T08:16:01;101110.50;;;15.86;33.30
9335;BME280;4706;41.844;26.082;2023-03-14T08:18:26;101106.44;;;16.00;33.06
9335;BME280;4706;41.844;26.082;2023-03-14T08:20:52;101111.03;;;16.31;32.32
9335;BME280;4706;41.844;26.082;2023-03-14T08:23:17;101106.28;;;16.58;31.93
9335;BME280;4706;41.844;26.082;2023-03-14T08:25:43;101101.22;;;16.51;30.17
9335;BME280;4706;41.844;26.082;2023-03-14T08:28:08;101098.97;;;16.44;29.33
9335;BME280;4706;41.844;26.082;2023-03-14T08:30:34;101104.84;;;16.25;30.95
9335;BME280;4706;41.844;26.082;2023-03-14T08:33:00;101103.53;;;16.40;31.15
9335;BME280;4706;41.844;26.082;2023-03-14T08:35:27;101098.16;;;16.44;30.30
9335;BME280;4706;41.844;26.082;2023-03-14T08:37:52;101088.16;;;16.60;29.22
9335;BME280;4706;41.844;26.082;2023-03-14T08:40:18;101078.00;;;16.64;28.27
9335;BME280;4706;41.844;26.082;2023-03-14T08:42:44;101072.25;;;16.95;28.78
9335;BME280;4706;41.844;26.082;2023-03-14T08:45:12;101069.72;;;17.20;27.63
9335;BME280;4706;41.844;26.082;2023-03-14T08:47:39;101070.38;;;17.17;26.87
9335;BME280;4706;41.844;26.082;2023-03-14T08:50:05;101060.88;;;17.18;26.93
9335;BME280;4706;41.844;26.082;2023-03-14T08:52:32;101055.25;;;17.35;25.67
9335;BME280;4706;41.844;26.082;2023-03-14T08:54:58;101048.75;;;17.52;25.35
9335;BME280;4706;41.844;26.082;2023-03-14T08:57:24;101048.31;;;17.50;24.09
9335;BME280;4706;41.844;26.082;2023-03-14T08:59:53;101046.31;;;17.21;23.87
9335;BME280;4706;41.844;26.082;2023-03-14T09:02:20;101032.25;;;16.79;23.47
9335;BME280;4706;41.844;26.082;2023-03-14T09:04:46;101038.16;;;16.78;24.29
9335;BME280;4706;41.844;26.082;2023-03-14T09:07:11;101034.75;;;17.10;24.05
9335;BME280;4706;41.844;26.082;2023-03-14T09:09:37;101035.34;;;17.54;22.69
9335;BME280;4706;41.844;26.082;2023-03-14T09:12:02;101030.25;;;17.86;21.59
9335;BME280;4706;41.844;26.082;2023-03-14T09:14:28;101023.34;;;18.13;21.71
9335;BME280;4706;41.844;26.082;2023-03-14T09:16:54;101024.19;;;18.05;21.01
9335;BME280;4706;41.844;26.082;2023-03-14T09:19:20;101009.88;;;18.15;22.27
9335;BME280;4706;41.844;26.082;2023-03-14T09:21:45;101020.81;;;17.99;21.90
9335;BME280;4706;41.844;26.082;2023-03-14T09:24:11;101014.03;;;17.88;20.69
9335;BME280;4706;41.844;26.082;2023-03-14T09:26:36;101009.41;;;18.13;20.42
9335;BME280;4706;41.844;26.082;2023-03-14T09:29:03;101001.22;;;17.95;20.77
9335;BME280;4706;41.844;26.082;2023-03-14T09:31:28;100999.31;;;17.87;21.39
9335;BME280;4706;41.844;26.082;2023-03-14T09:33:55;100995.63;;;17.95;20.75
9335;BME280;4706;41.844;26.082;2023-03-14T09:36:20;100989.47;;;18.23;20.18
9335;BME280;4706;41.844;26.082;2023-03-14T09:38:46;100993.09;;;18.69;20.72
9335;BME280;4706;41.844;26.082;2023-03-14T09:41:18;100980.28;;;19.13;20.80
9335;BME280;4706;41.844;26.082;2023-03-14T09:43:48;100976.75;;;19.53;21.10
9335;BME280;4706;41.844;26.082;2023-03-14T09:46:16;100973.69;;;19.71;20.65
9335;BME280;4706;41.844;26.082;2023-03-14T09:48:43;100964.03;;;19.80;21.01
9335;BME280;4706;41.844;26.082;2023-03-14T09:51:17;100967.69;;;19.97;20.04
9335;BME280;4706;41.844;26.082;2023-03-14T09:53:48;100967.16;;;19.91;20.57
9335;BME280;4706;41.844;26.082;2023-03-14T09:58:49;100966.56;;;19.21;21.84
9335;BME280;4706;41.844;26.082;2023-03-14T10:01:19;100950.53;;;19.05;21.17
9335;BME280;4706;41.844;26.082;2023-03-14T10:03:47;100944.94;;;19.30;20.88
9335;BME280;4706;41.844;26.082;2023-03-14T10:06:13;100940.22;;;19.58;21.98
9335;BME280;4706;41.844;26.082;2023-03-14T10:08:41;100937.44;;;19.58;21.40
9335;BME280;4706;41.844;26.082;2023-03-14T10:11:12;100926.25;;;19.06;21.32
9335;BME280;4706;41.844;26.082;2023-03-14T10:16:28;100923.94;;;19.60;21.19
9335;BME280;4706;41.844;26.082;2023-03-14T10:19:01;100920.34;;;19.72;21.05
9335;BME280;4706;41.844;26.082;2023-03-14T10:21:29;100916.38;;;19.73;21.13
9335;BME280;4706;41.844;26.082;2023-03-14T10:24:07;100908.19;;;19.52;21.79
9335;BME280;4706;41.844;26.082;2023-03-14T10:26:34;100901.06;;;19.67;21.63
9335;BME280;4706;41.844;26.082;2023-03-14T10:29:09;100897.56;;;19.58;21.30
9335;BME280;4706;41.844;26.082;2023-03-14T10:31:57;100889.47;;;19.81;21.34
9335;BME280;4706;41.844;26.082;2023-03-14T10:34:26;100880.44;;;20.00;20.93
9335;BME280;4706;41.844;26.082;2023-03-14T10:36:54;100881.63;;;20.30;21.15
9335;BME280;4706;41.844;26.082;2023-03-14T10:39:26;100875.03;;;20.51;21.22
9335;BME280;4706;41.844;26.082;2023-03-14T10:44:56;100859.09;;;20.07;21.25
9335;BME280;4706;41.844;26.082;2023-03-14T10:47:24;100850.09;;;19.70;21.84
9335;BME280;4706;41.844;26.082;2023-03-14T10:49:51;100849.06;;;19.75;21.67
9335;BME280;4706;41.844;26.082;2023-03-14T10:52:23;100828.53;;;19.83;21.66
9335;BME280;4706;41.844;26.082;2023-03-14T10:54:58;100831.34;;;19.42;21.56
9335;BME280;4706;41.844;26.082;2023-03-14T10:57:24;100822.19;;;19.70;21.64
9335;BME280;4706;41.844;26.082;2023-03-14T10:59:51;100814.31;;;19.88;21.58
9335;BME280;4706;41.844;26.082;2023-03-14T11:07:39;100802.94;;;19.65;20.50
9335;BME280;4706;41.844;26.082;2023-03-14T11:15:45;100767.06;;;19.23;20.33
9335;BME280;4706;41.844;26.082;2023-03-14T11:18:20;100773.97;;;19.29;19.73
9335;BME280;4706;41.844;26.082;2023-03-14T11:20:56;100769.59;;;19.28;19.10
9335;BME280;4706;41.844;26.082;2023-03-14T11:23:30;100756.31;;;19.37;18.67
9335;BME280;4706;41.844;26.082;2023-03-14T11:28:40;100740.53;;;19.01;16.96
9335;BME280;4706;41.844;26.082;2023-03-14T11:33:47;100728.31;;;18.78;15.29
9335;BME280;4706;41.844;26.082;2023-03-14T11:36:27;100725.97;;;18.80;16.69
9335;BME280;4706;41.844;26.082;2023-03-14T11:38:58;100710.06;;;18.68;16.92
9335;BME280;4706;41.844;26.082;2023-03-14T11:41:39;100696.38;;;18.75;17.16
9335;BME280;4706;41.844;26.082;2023-03-14T11:44:16;100696.59;;;18.82;17.71
9335;BME280;4706;41.844;26.082;2023-03-14T11:49:24;100687.94;;;19.00;18.26
9335;BME280;4706;41.844;26.082;2023-03-14T11:51:57;100673.09;;;18.96;17.15
9335;BME280;4706;41.844;26.082;2023-03-14T11:54:44;100665.66;;;18.87;17.10
9335;BME280;4706;41.844;26.082;2023-03-14T11:57:16;100662.25;;;18.66;17.86
9335;BME280;4706;41.844;26.082;2023-03-14T12:13:02;100624.63;;;19.00;17.01
9335;BME280;4706;41.844;26.082;2023-03-14T12:15:28;100622.28;;;19.18;17.47
9335;BME280;4706;41.844;26.082;2023-03-14T12:17:55;100621.47;;;19.02;16.97
9335;BME280;4706;41.844;26.082;2023-03-14T12:20:29;100614.97;;;18.82;19.00
9335;BME280;4706;41.844;26.082;2023-03-14T12:23:01;100612.97;;;18.54;19.70
9335;BME280;4706;41.844;26.082;2023-03-14T12:25:30;100605.91;;;18.44;19.44
9335;BME280;4706;41.844;26.082;2023-03-14T12:35:45;100593.38;;;18.38;19.60
9335;BME280;4706;41.844;26.082;2023-03-14T12:41:26;100596.00;;;18.59;18.53
9335;BME280;4706;41.844;26.082;2023-03-14T12:43:52;100582.88;;;18.60;19.79
9335;BME280;4706;41.844;26.082;2023-03-14T12:51:19;100566.22;;;18.76;18.19
9335;BME280;4706;41.844;26.082;2023-03-14T12:56:24;100555.44;;;18.74;21.10
9335;BME280;4706;41.844;26.082;2023-03-14T13:01:18;100550.00;;;18.37;20.00
9335;BME280;4706;41.844;26.082;2023-03-14T13:03:55;100544.97;;;18.15;21.17
9335;BME280;4706;41.844;26.082;2023-03-14T13:12:19;100531.78;;;18.40;18.60
9335;BME280;4706;41.844;26.082;2023-03-14T13:14:49;100536.13;;;18.25;20.58
9335;BME280;4706;41.844;26.082;2023-03-14T13:17:25;100529.66;;;18.09;18.32
9335;BME280;4706;41.844;26.082;2023-03-14T13:19:54;100520.44;;;17.92;19.88
9335;BME280;4706;41.844;26.082;2023-03-14T13:22:24;100507.75;;;17.79;20.39
9335;BME280;4706;41.844;26.082;2023-03-14T13:24:59;100507.28;;;17.77;20.77
9335;BME280;4706;41.844;26.082;2023-03-14T13:27:25;100497.97;;;17.73;20.15
9335;BME280;4706;41.844;26.082;2023-03-14T13:29:51;100496.25;;;17.56;19.76
9335;BME280;4706;41.844;26.082;2023-03-14T13:32:20;100506.47;;;17.52;20.17
9335;BME280;4706;41.844;26.082;2023-03-14T13:34:45;100485.88;;;17.29;19.75
9335;BME280;4706;41.844;26.082;2023-03-14T13:37:20;100490.84;;;17.35;19.90
9335;BME280;4706;41.844;26.082;2023-03-14T13:39:57;100484.34;;;17.43;18.76
9335;BME280;4706;41.844;26.082;2023-03-14T13:42:28;100478.22;;;17.38;19.70
9335;BME280;4706;41.844;26.082;2023-03-14T13:44:55;100474.31;;;17.27;19.86
9335;BME280;4706;41.844;26.082;2023-03-14T13:47:24;100459.69;;;17.30;19.71
9335;BME280;4706;41.844;26.082;2023-03-14T13:49:50;100451.81;;;17.07;21.65
9335;BME280;4706;41.844;26.082;2023-03-14T13:52:36;100453.22;;;17.01;22.08
9335;BME280;4706;41.844;26.082;2023-03-14T13:55:03;100450.78;;;16.87;21.93
9335;BME280;4706;41.844;26.082;2023-03-14T13:57:46;100441.94;;;16.73;22.07
9335;BME280;4706;41.844;26.082;2023-03-14T14:00:23;100438.25;;;16.81;22.14
9335;BME280;4706;41.844;26.082;2023-03-14T14:02:55;100432.25;;;16.91;22.92
9335;BME280;4706;41.844;26.082;2023-03-14T14:05:23;100426.47;;;16.84;22.55
9335;BME280;4706;41.844;26.082;2023-03-14T14:07:50;100420.47;;;16.82;23.50
9335;BME280;4706;41.844;26.082;2023-03-14T14:10:17;100420.06;;;16.71;24.74
9335;BME280;4706;41.844;26.082;2023-03-14T14:12:57;100415.44;;;16.63;24.24
9335;BME280;4706;41.844;26.082;2023-03-14T14:15:31;100414.59;;;16.50;23.08
9335;BME280;4706;41.844;26.082;2023-03-14T14:18:04;100405.47;;;16.50;22.37
9335;BME280;4706;41.844;26.082;2023-03-14T14:20:37;100399.47;;;16.60;23.06